Orleans, IN

7:34 PM EDT on June 23, 2017 (GMT -0400)
Orleans | | Change Station
Active Advisory: Flash Flood Watch Active Notice: Flash Flood Watch

Elev 690 ft 38.66 °N, 86.40 °W | Updated 30 seconds ago

Rain
Rain
75.0 °F
Feels Like 73 °F
N
0.0
Wind Variable Wind from SE
Gusts 0.0 mph

Today
High -- | Low -- °F
--% Chance of Precip.
Yesterday
High -- | Low -- °F
Precip. -- in
Pressure 29.72 in
Visibility 10.0 miles
Clouds Scattered Clouds 1100 ft
Mostly Cloudy 2400 ft
Overcast 3300 ft
Heat Index 73 °F
Dew Point 74 °F
Humidity 96%
Rainfall 0.00 in
Snow Depth Not available.
6:21 AM 9:14 PM
Waning Crescent, 0% visible
SPECI KBMG 232317Z 36008KT 10SM SCT011 BKN024 OVC033 23/20 A2972 RMK AO2 RAB2256E06 P0000 T02280200
Pressure 29.72 in
Visibility 10.0 miles
Clouds Scattered Clouds 1100 ft
Mostly Cloudy 2400 ft
Overcast 3300 ft
Heat Index 73 °F
Dew Point 74 °F
Humidity 96%
Rainfall 0.00 in
Snow Depth Not available.
6:21 AM 9:14 PM
Waning Crescent, 0% visible
SPECI KBMG 232317Z 36008KT 10SM SCT011 BKN024 OVC033 23/20 A2972 RMK AO2 RAB2256E06 P0000 T02280200

Get Your Daily Forecast Email!

Thanks for signing up!

Be on the lookout for a verification email in your inbox.

You'll start receiving severe weather alerts in your inbox..

×

10-Day Weather Forecast

Almanac

Astronomy

Jun. 23, 2017 Rise Set
Actual Time
Civil Twilight
Nautical Twilight
Astronomical Twilight
Moon
Length of Visible Light
Length of Day
Tomorrow will be .
, % of the Moon is Illuminated

Today's Extremes

State Highs State Lows

Community

WunderPhotos

Category 6

Welcome to Category 6. This is the collective home for Weather Underground's featured writeups by Dr. Jeff Masters (right), Bob Henson (left), Chris Burt, and other regular contributors.

Nearby

Air Quality

  Air Quality AQ Index Pollutant
Not available.

Snow Depth

Station Depth Elevation

Earthquake Activity

City Distance Mag. Time & Date
Minimum magnitude displayed is 2.5.

Coastal Water Temperatures

Place Temperature

Stations

Nearby Weather Stations

Station Location Temp. Windchill Dew Point Humidity Wind Precip. Elev Updated Type
                   

Watches & Warnings

Flash Flood Watch
Issued: 2:56 PM CDT Jun. 23, 2017 – National Weather Service

... Flash Flood Watch remains in effect until 2 am EDT /1 am CDT/
Saturday...

The Flash Flood Watch continues for

* south central Indiana.

* Until 2 am EDT /1 am CDT/ Saturday

* a cold front coming in from the northwest will join forces
with the remnants of Tropical Storm Cindy to produce
widespread rain, possibly heavy.

* Heavy rainfall may impact the evening commute.

Precautionary/preparedness actions...

A Flash Flood Watch means that conditions may develop that lead
to flash flooding. Flash flooding is a very dangerous situation.

You should monitor later forecasts and be prepared to take action
should flash flood warnings be issued.